createdAt,value
2018-04-14T00:00:12.267Z,99.90
2018-04-14T00:02:40.476Z,99.90
2018-04-14T00:05:07.919Z,99.90
2018-04-14T00:07:35.724Z,99.90
2018-04-14T00:10:03.176Z,99.90
2018-04-14T00:12:30.616Z,99.90
2018-04-14T00:14:58.051Z,99.90
2018-04-14T00:17:25.504Z,99.90
2018-04-14T00:19:52.939Z,99.90
2018-04-14T00:22:20.601Z,99.90
2018-04-14T00:24:48.043Z,99.90
2018-04-14T00:27:15.488Z,99.90
2018-04-14T00:29:42.933Z,99.90
2018-04-14T00:32:10.470Z,99.90
2018-04-14T00:34:37.923Z,99.90
2018-04-14T00:37:05.369Z,99.90
2018-04-14T00:39:32.807Z,99.90
2018-04-14T00:42:00.255Z,99.90
2018-04-14T00:44:27.715Z,99.90
2018-04-14T00:46:55.169Z,99.90
2018-04-14T00:49:22.611Z,99.90
2018-04-14T00:51:50.067Z,99.90
2018-04-14T00:54:17.503Z,99.90
2018-04-14T00:56:44.952Z,99.90
2018-04-14T00:59:12.401Z,99.90
2018-04-14T01:01:39.864Z,99.90
2018-04-14T01:04:07.337Z,99.90
2018-04-14T01:06:34.780Z,99.90
2018-04-14T01:09:02.220Z,99.90
2018-04-14T01:11:30.061Z,99.90
2018-04-14T01:13:57.503Z,99.90
2018-04-14T01:16:27.646Z,99.90
2018-04-14T01:18:55.981Z,99.90
2018-04-14T01:21:23.429Z,99.90
2018-04-14T01:23:50.901Z,99.90
2018-04-14T01:26:19.794Z,99.90
2018-04-14T01:28:48.765Z,99.90
2018-04-14T01:31:16.989Z,99.90
2018-04-14T01:36:19.432Z,99.90
2018-04-14T01:38:47.629Z,99.90
2018-04-14T01:41:15.069Z,99.90
2018-04-14T01:43:43.288Z,99.90
2018-04-14T01:46:10.725Z,99.90
2018-04-14T01:48:38.164Z,99.90
2018-04-14T01:51:05.626Z,99.90
2018-04-14T01:53:36.851Z,99.90
2018-04-14T01:56:04.288Z,99.90
2018-04-14T01:58:31.723Z,99.90
2018-04-14T02:00:59.184Z,99.90
2018-04-14T02:03:26.627Z,99.90
2018-04-14T02:05:54.064Z,99.90
2018-04-14T02:08:21.515Z,99.90
2018-04-14T02:10:49.183Z,99.90
2018-04-14T02:13:16.624Z,99.90
2018-04-14T02:15:45.324Z,99.90
2018-04-14T02:18:12.763Z,99.90
2018-04-14T02:20:40.200Z,99.90
2018-04-14T02:23:07.822Z,99.90
2018-04-14T02:25:35.268Z,99.90
2018-04-14T02:28:02.711Z,99.90
2018-04-14T02:30:30.153Z,99.90
2018-04-14T02:32:57.616Z,99.90
2018-04-14T02:35:25.052Z,99.90
2018-04-14T02:37:52.500Z,99.90
2018-04-14T02:40:21.440Z,99.90
2018-04-14T02:42:48.876Z,99.90
2018-04-14T02:45:16.534Z,99.90
2018-04-14T02:47:43.972Z,99.90
2018-04-14T02:50:11.414Z,99.90
2018-04-14T02:52:38.849Z,99.90
2018-04-14T02:55:06.288Z,99.90
2018-04-14T02:57:33.735Z,99.90
2018-04-14T03:00:01.176Z,99.90
2018-04-14T03:02:28.641Z,99.90
2018-04-14T03:04:56.099Z,99.90
2018-04-14T03:07:23.539Z,99.90
2018-04-14T03:09:50.996Z,99.90
2018-04-14T03:12:18.432Z,99.90
2018-04-14T03:14:45.884Z,99.90
2018-04-14T03:17:13.323Z,99.90
2018-04-14T03:19:40.776Z,99.90
2018-04-14T03:22:08.241Z,99.90
2018-04-14T03:24:35.668Z,99.90
2018-04-14T03:27:03.123Z,99.90
2018-04-14T03:29:30.555Z,99.90
2018-04-14T03:31:58.008Z,99.90
2018-04-14T03:34:25.466Z,99.90
2018-04-14T03:36:53.669Z,99.90
2018-04-14T03:39:21.121Z,99.90
2018-04-14T03:41:48.551Z,99.90
2018-04-14T03:44:15.989Z,99.90
2018-04-14T03:46:43.437Z,99.90
2018-04-14T03:49:10.872Z,99.90
2018-04-14T03:51:38.336Z,99.90
2018-04-14T03:54:05.772Z,99.90
2018-04-14T03:56:33.208Z,99.90
2018-04-14T03:59:00.659Z,99.90
2018-04-14T04:01:28.236Z,99.90
2018-04-14T04:03:55.693Z,99.90
2018-04-14T04:06:24.639Z,99.90
2018-04-14T04:08:52.110Z,99.90
2018-04-14T04:11:19.561Z,99.90
2018-04-14T04:13:47.006Z,99.90
2018-04-14T04:16:14.467Z,99.90
2018-04-14T04:18:53.776Z,99.90
2018-04-14T04:21:33.030Z,99.90
2018-04-14T04:24:12.320Z,99.90
2018-04-14T04:26:39.771Z,99.90
2018-04-14T04:29:07.208Z,99.90
2018-04-14T04:31:34.673Z,99.90
2018-04-14T04:34:02.955Z,99.90
2018-04-14T04:36:30.406Z,99.90
2018-04-14T04:38:57.848Z,99.90
2018-04-14T04:41:25.388Z,99.90
2018-04-14T04:43:52.827Z,99.90
2018-04-14T04:46:20.273Z,99.90
2018-04-14T04:48:48.286Z,99.90
2018-04-14T04:51:15.717Z,99.90
2018-04-14T04:53:43.287Z,99.90
2018-04-14T04:56:10.729Z,99.90
2018-04-14T04:58:38.190Z,99.90
2018-04-14T05:01:05.608Z,99.90
2018-04-14T05:03:33.829Z,99.90
2018-04-14T05:06:01.323Z,99.90
2018-04-14T05:08:28.758Z,99.90
2018-04-14T05:10:56.212Z,99.90
2018-04-14T05:13:23.677Z,99.90
2018-04-14T05:15:51.856Z,99.90
2018-04-14T05:18:19.296Z,99.90
2018-04-14T05:20:46.732Z,99.90
2018-04-14T05:23:14.188Z,99.90
2018-04-14T05:25:41.613Z,99.90
2018-04-14T05:28:09.113Z,99.90
2018-04-14T05:30:36.521Z,99.90
2018-04-14T05:33:03.958Z,99.90
2018-04-14T05:35:31.415Z,99.90
2018-04-14T05:37:58.935Z,99.90
2018-04-14T05:40:26.409Z,99.90
2018-04-14T05:42:53.852Z,99.90
2018-04-14T05:45:21.296Z,99.90
2018-04-14T05:47:48.744Z,99.90
2018-04-14T05:50:16.189Z,99.90
2018-04-14T05:52:43.668Z,99.90
2018-04-14T05:55:11.103Z,99.90
2018-04-14T05:57:38.717Z,99.90
2018-04-14T06:00:06.193Z,99.90
2018-04-14T06:02:33.604Z,99.90
2018-04-14T06:05:01.055Z,99.90
2018-04-14T06:07:28.484Z,99.90
2018-04-14T06:09:55.922Z,99.90
2018-04-14T06:12:23.384Z,99.90
2018-04-14T06:14:50.831Z,99.90
2018-04-14T06:17:18.276Z,99.90
2018-04-14T06:19:45.737Z,99.90
2018-04-14T06:22:13.197Z,99.90
2018-04-14T06:24:40.635Z,99.90
2018-04-14T06:27:08.083Z,99.90
2018-04-14T06:29:35.540Z,99.90
2018-04-14T06:32:02.980Z,99.90
2018-04-14T06:34:30.424Z,99.90
2018-04-14T06:36:57.864Z,99.90
2018-04-14T06:39:25.307Z,99.90
2018-04-14T06:41:52.757Z,99.90
2018-04-14T06:44:20.211Z,99.90
2018-04-14T06:46:47.654Z,99.90
2018-04-14T06:49:15.111Z,99.90
2018-04-14T06:51:42.570Z,99.90
2018-04-14T06:54:09.999Z,99.90
2018-04-14T06:56:37.440Z,99.90
2018-04-14T06:59:04.871Z,99.90
2018-04-14T07:01:32.436Z,99.90
2018-04-14T07:04:01.407Z,99.90
2018-04-14T07:06:28.856Z,99.90
2018-04-14T07:08:56.315Z,99.90
2018-04-14T07:11:23.772Z,99.90
2018-04-14T07:13:51.228Z,99.90
2018-04-14T07:16:18.680Z,99.90
2018-04-14T07:18:48.274Z,99.90
2018-04-14T07:21:16.498Z,99.90
2018-04-14T07:23:43.932Z,99.90
2018-04-14T07:26:27.236Z,99.90
2018-04-14T07:28:54.655Z,99.90
2018-04-14T07:31:22.118Z,99.90
2018-04-14T07:33:50.904Z,99.90
2018-04-14T07:36:19.320Z,99.90
2018-04-14T07:38:46.768Z,99.90
2018-04-14T07:41:14.536Z,99.90
2018-04-14T07:43:41.999Z,99.80
2018-04-14T07:46:09.457Z,99.60
2018-04-14T07:48:36.893Z,99.70
2018-04-14T07:51:04.352Z,99.70
2018-04-14T07:53:31.812Z,99.80
2018-04-14T07:55:59.252Z,99.80
2018-04-14T07:58:26.707Z,99.90
2018-04-14T08:00:54.159Z,99.90
2018-04-14T08:03:22.397Z,99.90
2018-04-14T08:05:49.826Z,99.90
2018-04-14T08:08:17.272Z,99.90
2018-04-14T08:10:44.740Z,99.90
2018-04-14T08:13:12.181Z,99.90
2018-04-14T08:15:39.642Z,99.90
2018-04-14T08:18:07.257Z,99.70
2018-04-14T08:20:35.309Z,99.10
2018-04-14T08:23:03.183Z,98.70
2018-04-14T08:25:31.599Z,98.20
2018-04-14T08:27:59.073Z,97.50
2018-04-14T08:30:27.063Z,96.60
2018-04-14T08:32:54.617Z,94.90
2018-04-14T08:35:22.085Z,93.80
2018-04-14T08:37:49.548Z,92.60
2018-04-14T08:40:16.995Z,91.00
2018-04-14T08:42:44.461Z,87.40
2018-04-14T08:45:13.433Z,78.70
2018-04-14T08:47:40.905Z,78.60
2018-04-14T08:50:08.368Z,75.70
2018-04-14T08:52:35.867Z,73.60
2018-04-14T08:55:04.106Z,68.80
2018-04-14T08:57:33.079Z,68.70
2018-04-14T09:00:00.567Z,68.60
2018-04-14T09:02:28.055Z,65.90
2018-04-14T09:04:56.288Z,64.20
2018-04-14T09:07:23.776Z,64.10
2018-04-14T09:09:51.211Z,62.80
2018-04-14T09:12:18.652Z,58.30
2018-04-14T09:14:46.107Z,59.00
2018-04-14T09:17:13.813Z,57.30
2018-04-14T09:19:41.655Z,57.10
2018-04-14T09:22:09.131Z,56.10
2018-04-14T09:24:36.599Z,55.00
2018-04-14T09:27:04.164Z,53.60
2018-04-14T09:29:32.548Z,51.20
2018-04-14T09:32:00.869Z,50.90
2018-04-14T09:34:29.101Z,50.50
2018-04-14T09:36:56.581Z,50.50
2018-04-14T09:39:24.060Z,50.90
2018-04-14T09:41:51.516Z,50.50
2018-04-14T09:44:20.473Z,48.10
2018-04-14T09:46:47.925Z,48.00
2018-04-14T09:49:15.387Z,47.80
2018-04-14T09:51:43.332Z,47.90
2018-04-14T09:54:10.775Z,47.30
2018-04-14T09:56:38.239Z,46.90
2018-04-14T09:59:05.699Z,45.60
2018-04-14T10:01:33.159Z,45.30
2018-04-14T10:04:00.616Z,46.10
2018-04-14T10:06:28.093Z,45.60
2018-04-14T10:08:55.548Z,45.80
2018-04-14T10:11:29.161Z,46.00
2018-04-14T10:13:56.711Z,46.00
2018-04-14T10:16:24.159Z,46.40
2018-04-14T10:18:55.415Z,46.40
2018-04-14T10:21:22.897Z,46.20
2018-04-14T10:23:50.905Z,45.10
2018-04-14T10:26:18.690Z,46.10
2018-04-14T10:28:46.147Z,47.10
2018-04-14T10:31:13.606Z,46.90
2018-04-14T10:33:41.059Z,46.40
2018-04-14T10:36:08.523Z,45.90
2018-04-14T10:38:35.972Z,44.40
2018-04-14T10:41:03.439Z,44.80
2018-04-14T10:43:30.897Z,45.70
2018-04-14T10:45:58.343Z,45.50
2018-04-14T10:48:26.583Z,44.10
2018-04-14T10:50:54.125Z,44.00
2018-04-14T10:53:21.657Z,44.50
2018-04-14T10:55:49.224Z,44.70
2018-04-14T10:58:16.681Z,44.60
2018-04-14T11:00:44.198Z,43.30
2018-04-14T11:03:11.707Z,43.60
2018-04-14T11:05:40.012Z,44.90
2018-04-14T11:08:07.528Z,44.80
2018-04-14T11:10:36.034Z,42.30
2018-04-14T11:13:03.559Z,42.30
2018-04-14T11:15:31.068Z,42.60
2018-04-14T11:17:59.357Z,45.30
2018-04-14T11:20:26.883Z,45.20
2018-04-14T11:22:54.420Z,46.30
2018-04-14T11:25:21.967Z,45.10
2018-04-14T11:27:49.421Z,43.30
2018-04-14T11:30:17.311Z,43.50
2018-04-14T11:32:44.791Z,44.00
2018-04-14T11:35:12.252Z,42.80
2018-04-14T11:37:39.716Z,42.40
2018-04-14T11:40:07.252Z,41.00
2018-04-14T11:42:34.708Z,40.20
2018-04-14T11:45:02.260Z,40.90
2018-04-14T11:47:29.741Z,40.90
2018-04-14T11:49:57.216Z,39.80
2018-04-14T11:52:24.734Z,40.60
2018-04-14T11:54:52.995Z,40.70
2018-04-14T11:57:21.255Z,39.40
2018-04-14T11:59:48.803Z,39.50
2018-04-14T12:02:16.297Z,40.80
2018-04-14T12:04:43.816Z,40.40
2018-04-14T12:07:11.333Z,39.80
2018-04-14T12:09:38.834Z,39.60
2018-04-14T12:12:06.320Z,40.10
2018-04-14T12:14:33.889Z,39.30
2018-04-14T12:17:01.905Z,39.10
2018-04-14T12:19:30.784Z,40.70
2018-04-14T12:21:59.837Z,38.90
2018-04-14T12:24:27.365Z,38.80
2018-04-14T12:26:55.630Z,39.60
2018-04-14T12:29:23.095Z,39.60
2018-04-14T12:31:50.648Z,39.60
2018-04-14T12:34:18.183Z,38.30
2018-04-14T12:36:45.693Z,38.20
2018-04-14T12:39:13.229Z,38.60
2018-04-14T12:41:40.750Z,39.60
2018-04-14T12:44:08.283Z,40.10
2018-04-14T12:46:35.795Z,41.70
2018-04-14T12:49:03.321Z,42.40
2018-04-14T12:51:31.625Z,46.60
2018-04-14T12:53:59.674Z,46.50
2018-04-14T12:56:27.884Z,47.80
2018-04-14T12:58:55.341Z,47.70
2018-04-14T13:01:22.798Z,47.10
2018-04-14T13:03:54.144Z,44.70
2018-04-14T13:06:29.105Z,43.80
2018-04-14T13:08:56.992Z,43.70
2018-04-14T13:11:24.594Z,44.70
2018-04-14T13:13:52.804Z,46.60
2018-04-14T13:16:20.272Z,45.90
2018-04-14T13:18:48.407Z,46.30
2018-04-14T13:21:16.638Z,45.20
2018-04-14T13:23:44.410Z,45.00
2018-04-14T13:26:13.458Z,45.50
2018-04-14T13:28:40.892Z,43.80
2018-04-14T13:31:08.352Z,42.30
2018-04-14T13:33:35.992Z,42.00
2018-04-14T13:36:03.462Z,41.60
2018-04-14T13:38:31.425Z,41.70
2018-04-14T13:40:58.871Z,39.10
2018-04-14T13:43:26.331Z,39.30
2018-04-14T13:45:53.795Z,38.40
2018-04-14T13:48:21.262Z,39.40
2018-04-14T13:50:48.716Z,39.40
2018-04-14T13:53:16.181Z,39.40
2018-04-14T13:55:44.070Z,38.90
2018-04-14T13:58:11.526Z,37.40
2018-04-14T14:00:38.974Z,37.10
2018-04-14T14:03:06.562Z,39.00
2018-04-14T14:05:34.020Z,39.40
2018-04-14T14:08:01.474Z,37.80
2018-04-14T14:10:28.967Z,35.90
2018-04-14T14:12:56.519Z,35.80
2018-04-14T14:15:23.981Z,35.30
2018-04-14T14:17:51.420Z,35.00
2018-04-14T14:20:18.921Z,35.30
2018-04-14T14:22:46.503Z,35.70
2018-04-14T14:25:13.965Z,37.30
2018-04-14T14:27:41.796Z,36.10
2018-04-14T14:30:09.240Z,35.90
2018-04-14T14:32:36.763Z,36.50
2018-04-14T14:35:05.011Z,38.70
2018-04-14T14:37:32.469Z,38.60
2018-04-14T14:40:06.004Z,39.80
2018-04-14T14:42:34.792Z,39.10
2018-04-14T14:45:08.515Z,38.30
2018-04-14T14:47:43.036Z,38.90
2018-04-14T14:50:18.697Z,39.50
2018-04-14T14:52:46.250Z,41.60
2018-04-14T14:55:14.467Z,41.30
2018-04-14T14:57:42.048Z,41.30
2018-04-14T15:00:09.630Z,40.50
2018-04-14T15:02:37.099Z,41.10
2018-04-14T15:05:04.625Z,42.10
2018-04-14T15:07:32.105Z,42.80
2018-04-14T15:09:59.622Z,43.40
2018-04-14T15:12:27.923Z,44.30
2018-04-14T15:14:55.447Z,44.30
2018-04-14T15:17:22.950Z,44.40
2018-04-14T15:19:50.859Z,44.60
2018-04-14T15:22:18.302Z,45.10
2018-04-14T15:24:45.758Z,45.10
2018-04-14T15:27:13.265Z,46.30
2018-04-14T15:29:40.805Z,47.70
2018-04-14T15:32:08.332Z,47.80
2018-04-14T15:34:35.904Z,48.50
2018-04-14T15:37:03.400Z,48.80
2018-04-14T15:39:31.067Z,48.60
2018-04-14T15:41:58.812Z,48.50
2018-04-14T15:44:26.267Z,49.60
2018-04-14T15:46:53.785Z,48.80
2018-04-14T15:49:21.217Z,48.90
2018-04-14T15:51:48.770Z,49.30
2018-04-14T15:54:16.253Z,49.90
2018-04-14T15:56:43.705Z,49.00
2018-04-14T15:59:11.159Z,49.10
2018-04-14T16:01:38.624Z,49.90
2018-04-14T16:04:09.788Z,49.70
2018-04-14T16:06:33.527Z,50.00
2018-04-14T16:09:01.019Z,49.70
2018-04-14T16:11:28.603Z,50.40
2018-04-14T16:13:57.593Z,51.00
2018-04-14T16:16:25.017Z,51.50
2018-04-14T16:18:53.243Z,51.90
2018-04-14T16:21:21.480Z,52.10
2018-04-14T16:23:48.949Z,52.00
2018-04-14T16:26:16.418Z,52.50
2018-04-14T16:28:43.879Z,52.90
2018-04-14T16:31:11.351Z,52.50
2018-04-14T16:33:39.027Z,52.60
2018-04-14T16:36:06.473Z,53.10
2018-04-14T16:38:33.934Z,53.00
2018-04-14T16:41:01.587Z,53.30
2018-04-14T16:43:29.286Z,53.90
2018-04-14T16:45:56.934Z,54.50
2018-04-14T16:48:24.403Z,55.00
2018-04-14T16:50:51.859Z,54.90
2018-04-14T16:53:19.315Z,55.20
2018-04-14T16:55:46.764Z,55.40
2018-04-14T16:58:14.218Z,55.60
2018-04-14T17:00:41.996Z,56.00
2018-04-14T17:03:10.277Z,56.50
2018-04-14T17:05:37.741Z,56.70
2018-04-14T17:08:06.000Z,57.00
2018-04-14T17:10:33.551Z,57.40
2018-04-14T17:13:00.988Z,57.70
2018-04-14T17:15:28.527Z,58.10
2018-04-14T17:17:56.099Z,58.50
2018-04-14T17:20:23.547Z,58.80
2018-04-14T17:22:51.003Z,58.90
2018-04-14T17:25:18.490Z,59.10
2018-04-14T17:27:45.893Z,59.20
2018-04-14T17:30:13.336Z,59.30
2018-04-14T17:32:40.828Z,59.30
2018-04-14T17:35:08.276Z,59.30
2018-04-14T17:37:35.708Z,59.30
2018-04-14T17:40:03.339Z,59.50
2018-04-14T17:42:30.791Z,59.50
2018-04-14T17:44:59.268Z,59.70
2018-04-14T17:47:26.725Z,59.50
2018-04-14T17:49:54.173Z,59.70
2018-04-14T17:52:21.631Z,59.70
2018-04-14T17:54:49.080Z,59.90
2018-04-14T17:57:16.655Z,60.30
2018-04-14T17:59:44.105Z,60.50
2018-04-14T18:02:11.552Z,60.80
2018-04-14T18:04:39.780Z,61.00
2018-04-14T18:07:07.223Z,60.90
2018-04-14T18:09:34.732Z,61.10
2018-04-14T18:12:02.141Z,61.10
2018-04-14T18:14:29.704Z,61.30
2018-04-14T18:16:57.168Z,61.20
2018-04-14T18:19:24.590Z,61.20
2018-04-14T18:21:52.055Z,61.80
2018-04-14T18:24:19.569Z,62.10
2018-04-14T18:26:47.039Z,61.60
2018-04-14T18:29:14.502Z,61.60
2018-04-14T18:31:41.941Z,61.60
2018-04-14T18:34:09.618Z,61.40
2018-04-14T18:36:37.068Z,61.60
2018-04-14T18:39:05.211Z,61.80
2018-04-14T18:41:33.445Z,61.50
2018-04-14T18:44:05.448Z,61.40
2018-04-14T18:51:07.520Z,61.30
2018-04-14T18:53:34.965Z,61.10
2018-04-14T18:56:02.520Z,61.30
2018-04-14T18:58:30.323Z,61.50
2018-04-14T19:00:57.796Z,61.60
2018-04-14T19:03:25.436Z,61.60
2018-04-14T19:05:52.963Z,61.50
2018-04-14T19:08:20.364Z,61.50
2018-04-14T19:10:47.854Z,61.40
2018-04-14T19:13:15.295Z,61.30
2018-04-14T19:15:42.733Z,61.20
2018-04-14T19:18:10.649Z,61.10
2018-04-14T19:20:39.572Z,61.00
2018-04-14T19:23:07.029Z,61.00
2018-04-14T19:25:34.472Z,61.20
2018-04-14T19:28:01.972Z,61.10
2018-04-14T19:30:30.878Z,61.40
2018-04-14T19:32:58.659Z,61.40
2018-04-14T19:35:26.328Z,62.70
2018-04-14T19:37:53.887Z,63.90
2018-04-14T19:40:21.240Z,64.60
2018-04-14T19:42:48.741Z,64.90
2018-04-14T19:45:16.187Z,65.30
2018-04-14T19:47:43.641Z,66.10
2018-04-14T19:50:11.081Z,67.30
2018-04-14T19:52:38.528Z,68.20
2018-04-14T19:55:06.215Z,69.30
2018-04-14T19:57:33.665Z,70.80
2018-04-14T20:00:01.127Z,71.60
2018-04-14T20:02:28.793Z,72.30
2018-04-14T20:04:56.222Z,73.20
2018-04-14T20:07:24.439Z,74.00
2018-04-14T20:09:51.880Z,73.90
2018-04-14T20:12:19.352Z,74.50
2018-04-14T20:14:46.824Z,74.80
2018-04-14T20:17:14.283Z,74.80
2018-04-14T20:19:41.758Z,74.70
2018-04-14T20:22:09.493Z,73.90
2018-04-14T20:24:37.003Z,73.80
2018-04-14T20:27:04.445Z,73.30
2018-04-14T20:29:31.905Z,71.70
2018-04-14T20:31:59.468Z,70.60
2018-04-14T20:34:26.918Z,69.90
2018-04-14T20:36:54.432Z,69.70
2018-04-14T20:39:21.859Z,69.90
2018-04-14T20:41:49.353Z,70.80
2018-04-14T20:44:16.814Z,71.50
2018-04-14T20:46:44.340Z,72.10
2018-04-14T20:49:11.793Z,72.90
2018-04-14T20:51:39.236Z,73.60
2018-04-14T20:54:06.675Z,74.50
2018-04-14T20:56:34.135Z,75.30
2018-04-14T20:59:01.664Z,76.40
2018-04-14T21:01:29.044Z,77.30
2018-04-14T21:03:56.496Z,78.20
2018-04-14T21:06:23.956Z,78.80
2018-04-14T21:08:51.399Z,79.40
2018-04-14T21:11:18.863Z,80.50
2018-04-14T21:13:46.312Z,81.40
2018-04-14T21:16:13.760Z,82.10
2018-04-14T21:18:41.204Z,82.50
2018-04-14T21:21:08.656Z,82.70
2018-04-14T21:23:36.101Z,82.80
2018-04-14T21:26:03.559Z,82.70
2018-04-14T21:28:31.067Z,82.80
2018-04-14T21:30:58.500Z,83.00
2018-04-14T21:33:25.979Z,83.20
2018-04-14T21:35:53.423Z,83.00
2018-04-14T21:38:21.857Z,83.00
2018-04-14T21:40:49.405Z,82.90
2018-04-14T21:43:16.823Z,83.00
2018-04-14T21:45:44.328Z,83.00
2018-04-14T21:48:11.744Z,83.30
2018-04-14T21:50:39.199Z,83.80
2018-04-14T21:53:06.648Z,84.10
2018-04-14T21:55:34.105Z,84.40
2018-04-14T21:58:01.557Z,84.70
2018-04-14T22:00:29.014Z,84.80
2018-04-14T22:02:56.459Z,85.10
2018-04-14T22:05:23.913Z,85.60
2018-04-14T22:07:51.352Z,86.10
2018-04-14T22:10:18.942Z,86.20
2018-04-14T22:12:46.393Z,86.70
2018-04-14T22:15:13.836Z,87.00
2018-04-14T22:17:42.045Z,87.30
2018-04-14T22:20:09.480Z,87.20
2018-04-14T22:22:36.948Z,87.20
2018-04-14T22:25:04.764Z,87.40
2018-04-14T22:27:32.220Z,87.50
2018-04-14T22:29:59.665Z,87.60
2018-04-14T22:32:27.121Z,87.80
2018-04-14T22:34:54.576Z,88.10
2018-04-14T22:37:22.020Z,88.50
2018-04-14T22:39:49.685Z,89.00
2018-04-14T22:42:17.145Z,89.60
2018-04-14T22:44:44.588Z,90.00
2018-04-14T22:47:12.805Z,90.20
2018-04-14T22:49:40.255Z,90.20
2018-04-14T22:52:07.713Z,90.30
2018-04-14T22:54:35.411Z,90.40
2018-04-14T22:57:02.891Z,90.40
2018-04-14T22:59:30.347Z,90.50
2018-04-14T23:01:57.783Z,90.70
2018-04-14T23:04:25.585Z,90.70
2018-04-14T23:06:53.012Z,90.70
2018-04-14T23:09:20.447Z,90.70
2018-04-14T23:11:48.161Z,90.80
2018-04-14T23:14:15.627Z,90.80
2018-04-14T23:16:43.079Z,90.80
2018-04-14T23:19:10.820Z,90.80
2018-04-14T23:21:38.299Z,90.80
2018-04-14T23:24:05.763Z,90.90
2018-04-14T23:26:33.537Z,91.40
2018-04-14T23:29:00.991Z,91.20
2018-04-14T23:31:28.595Z,91.30
2018-04-14T23:33:56.364Z,91.30
2018-04-14T23:36:25.317Z,91.20
2018-04-14T23:38:52.757Z,91.20
2018-04-14T23:41:20.213Z,91.30
2018-04-14T23:43:47.756Z,91.30
2018-04-14T23:46:15.975Z,91.30
2018-04-14T23:48:43.423Z,91.30
2018-04-14T23:51:10.858Z,91.30
2018-04-14T23:53:38.312Z,91.40
2018-04-14T23:56:05.755Z,91.40
2018-04-14T23:58:33.520Z,91.60
